Time;durP1;ratioP1;P1;durP2;ratioP2;P2;SDS_P1;SDS_P2;PMS_P1;PMS_P2;Temp;Humidity;BMP_temperature;BMP_pressure;BME280_temperature;BME280_humidity;BME280_pressure;Samples;Min_cycle;Max_cycle;Signal;HPM_P1;HPM_P2
2021/10/29 00:02:16;;;;;;;8.95;5.10;;;;;;;23.34;41.41;99222.50;5032683;28;20515;-77
2021/10/29 00:04:42;;;;;;;10.68;5.55;;;;;;;23.40;41.41;99227.13;5032812;28;20509;-79
2021/10/29 00:07:09;;;;;;;12.52;6.15;;;;;;;23.42;41.29;99226.66;5015102;28;20535;-80
2021/10/29 00:09:35;;;;;;;11.32;5.70;;;;;;;23.42;41.37;99221.09;5032693;28;20036;-78
2021/10/29 00:12:01;;;;;;;7.28;5.10;;;;;;;23.43;41.17;99220.69;5032679;28;20100;-79
2021/10/29 00:14:31;;;;;;;9.32;6.18;;;;;;;23.44;41.06;99219.47;5014380;28;20523;-79
2021/10/29 00:16:57;;;;;;;8.05;5.63;;;;;;;23.32;41.62;99219.38;5030945;28;20121;-76
2021/10/29 00:19:23;;;;;;;8.75;5.82;;;;;;;23.21;41.83;99217.63;5013475;28;20033;-77
2021/10/29 00:21:48;;;;;;;17.80;6.78;;;;;;;23.25;41.60;99206.41;5032100;28;20471;-77
2021/10/29 00:24:14;;;;;;;8.18;5.25;;;;;;;23.23;41.80;99208.84;5032574;28;20021;-77
2021/10/29 00:26:40;;;;;;;6.47;5.30;;;;;;;23.23;41.53;99206.06;5032547;28;20036;-78
2021/10/29 00:29:05;;;;;;;8.75;5.78;;;;;;;23.22;41.59;99208.06;5032576;28;20021;-78
2021/10/29 00:31:31;;;;;;;11.82;5.60;;;;;;;23.21;41.55;99208.50;5032461;28;20064;-78
2021/10/29 00:33:57;;;;;;;7.70;5.10;;;;;;;23.18;41.75;99203.78;5032475;28;20053;-78
2021/10/29 00:36:23;;;;;;;12.07;6.50;;;;;;;23.23;41.75;99206.06;5032440;28;20543;-78
2021/10/29 00:38:49;;;;;;;11.32;6.55;;;;;;;23.20;41.87;99198.53;5039023;28;20192;-78
2021/10/29 00:41:14;;;;;;;7.63;5.25;;;;;;;23.21;41.47;99202.94;5039049;28;20024;-78
2021/10/29 00:43:40;;;;;;;10.85;6.55;;;;;;;23.18;41.81;99201.78;5038967;28;20051;-78
2021/10/29 00:46:05;;;;;;;9.60;5.53;;;;;;;23.16;41.76;99197.88;5038974;28;20030;-78
2021/10/29 00:48:31;;;;;;;11.38;5.88;;;;;;;23.13;41.73;99196.75;5021185;28;20380;-78
2021/10/29 00:50:57;;;;;;;8.65;5.93;;;;;;;23.04;42.04;99199.34;5038992;28;20052;-78
2021/10/29 00:53:23;;;;;;;9.70;6.10;;;;;;;23.10;41.72;99202.38;5038880;28;20033;-78
2021/10/29 00:55:49;;;;;;;9.75;5.88;;;;;;;23.08;42.02;99200.03;5038724;28;20047;-78
2021/10/29 00:58:15;;;;;;;12.93;5.78;;;;;;;23.10;41.54;99194.81;5038653;28;20036;-78
2021/10/29 01:00:41;;;;;;;12.63;6.20;;;;;;;23.13;41.91;99188.38;5038855;28;20025;-77
2021/10/29 01:03:07;;;;;;;9.25;6.20;;;;;;;23.08;41.70;99191.69;5038614;28;20045;-78
2021/10/29 01:05:33;;;;;;;7.25;6.00;;;;;;;23.14;41.64;99187.16;5020913;28;20030;-78
2021/10/29 01:07:59;;;;;;;9.55;5.95;;;;;;;23.17;41.87;99183.50;5038709;28;20112;-78
2021/10/29 01:10:30;;;;;;;13.05;5.93;;;;;;;23.19;41.90;99174.69;5038724;28;20026;-78
2021/10/29 01:12:55;;;;;;;9.10;5.63;;;;;;;23.28;41.76;99168.53;5038418;28;20028;-77
2021/10/29 01:15:21;;;;;;;9.93;5.75;;;;;;;23.26;41.79;99166.94;5038623;28;20025;-78
2021/10/29 01:17:47;;;;;;;9.40;6.20;;;;;;;23.30;41.36;99168.88;5038675;28;20361;-78
2021/10/29 01:20:18;;;;;;;9.07;5.78;;;;;;;23.33;41.61;99162.41;5038641;28;20087;-78
2021/10/29 01:22:44;;;;;;;11.15;6.18;;;;;;;23.33;41.58;99160.41;5038660;28;20033;-77
2021/10/29 01:25:12;;;;;;;10.18;5.95;;;;;;;23.32;41.71;99158.84;5038645;28;20035;-77
2021/10/29 01:27:38;;;;;;;9.18;6.07;;;;;;;23.38;41.60;99161.91;5038614;28;20388;-78
2021/10/29 01:30:04;;;;;;;11.10;7.13;;;;;;;23.33;41.58;99156.84;5038580;28;20087;-78
2021/10/29 01:32:30;;;;;;;9.93;5.95;;;;;;;23.24;41.40;99149.88;5038516;28;20025;-78
2021/10/29 01:34:56;;;;;;;8.45;6.15;;;;;;;23.25;41.75;99148.66;5020710;28;20037;-78
2021/10/29 01:37:22;;;;;;;10.40;5.82;;;;;;;23.31;41.53;99140.56;5038462;28;20052;-77
2021/10/29 01:39:48;;;;;;;8.25;5.93;;;;;;;23.19;41.90;99130.13;5038433;28;20476;-78
2021/10/29 01:42:13;;;;;;;9.55;6.32;;;;;;;23.23;41.79;99128.03;5038425;28;20078;-78
2021/10/29 01:44:41;;;;;;;11.65;5.82;;;;;;;23.33;41.66;99124.19;5038447;28;20025;-78
2021/10/29 01:47:07;;;;;;;9.35;6.75;;;;;;;23.31;41.46;99121.06;5020632;28;20036;-78
2021/10/29 01:49:34;;;;;;;11.70;7.78;;;;;;;23.36;41.35;99112.16;5017745;28;20029;-78
2021/10/29 01:52:00;;;;;;;10.15;7.45;;;;;;;23.38;41.17;99117.31;5035337;28;20029;-78
2021/10/29 01:54:26;;;;;;;9.38;6.00;;;;;;;23.37;41.43;99105.38;5035187;28;20028;-77
2021/10/29 01:56:52;;;;;;;8.27;5.57;;;;;;;23.36;41.22;99097.47;5034989;28;20534;-77
2021/10/29 01:59:18;;;;;;;8.88;6.22;;;;;;;23.29;41.35;99092.06;5035265;28;20121;-77
2021/10/29 02:01:44;;;;;;;10.85;6.07;;;;;;;23.23;41.66;99091.81;5017129;28;20697;-77
2021/10/29 02:04:09;;;;;;;9.82;6.55;;;;;;;23.25;41.40;99092.16;5035052;28;20037;-78
2021/10/29 02:06:35;;;;;;;10.48;6.13;;;;;;;23.24;41.39;99083.00;5034945;28;20489;-77
2021/10/29 02:09:01;;;;;;;9.55;6.35;;;;;;;23.26;41.26;99083.34;5034939;28;20079;-77
2021/10/29 02:11:26;;;;;;;22.48;6.57;;;;;;;23.30;41.20;99091.63;5034949;28;20017;-77
2021/10/29 02:13:52;;;;;;;11.70;6.00;;;;;;;23.26;41.35;99090.94;5017075;28;20026;-77
2021/10/29 02:16:18;;;;;;;8.63;5.40;;;;;;;23.28;41.41;99082.16;5034759;28;20053;-77
2021/10/29 02:18:43;;;;;;;9.35;6.15;;;;;;;23.32;41.44;99080.81;5034827;28;20541;-78
2021/10/29 02:21:09;;;;;;;10.65;6.88;;;;;;;23.27;41.25;99078.56;5034737;28;20036;-78
2021/10/29 02:23:34;;;;;;;12.65;6.88;;;;;;;23.27;41.60;99067.41;5034688;28;20030;-77
2021/10/29 02:26:00;;;;;;;7.57;5.85;;;;;;;23.23;41.42;99078.66;5034719;28;20057;-77
2021/10/29 02:28:26;;;;;;;11.73;6.47;;;;;;;23.35;41.09;99074.38;5034626;28;20512;-77
2021/10/29 02:30:52;;;;;;;10.20;6.10;;;;;;;23.34;41.13;99070.00;5034562;28;20025;-77
2021/10/29 02:33:19;;;;;;;8.13;5.85;;;;;;;23.33;41.04;99056.50;5034464;28;20040;-77
2021/10/29 02:35:45;;;;;;;9.15;6.18;;;;;;;23.33;41.00;99062.09;5034373;28;20035;-78
2021/10/29 02:38:12;;;;;;;6.78;5.43;;;;;;;23.33;41.06;99064.88;5034461;28;20072;-77
2021/10/29 02:40:37;;;;;;;13.60;6.45;;;;;;;23.34;41.10;99058.84;5034420;28;20030;-78
2021/10/29 02:43:04;;;;;;;12.00;6.50;;;;;;;23.37;40.88;99062.78;5034276;28;20040;-78
2021/10/29 02:45:29;;;;;;;8.07;6.07;;;;;;;23.35;40.99;99057.66;5034290;28;20494;-77
2021/10/29 02:47:56;;;;;;;10.82;6.75;;;;;;;23.35;40.99;99052.09;5016415;28;20033;-77
2021/10/29 02:50:22;;;;;;;11.10;6.38;;;;;;;23.35;41.10;99048.50;5034164;28;20030;-77
2021/10/29 02:52:49;;;;;;;13.15;7.03;;;;;;;23.31;40.96;99054.19;5034162;28;20040;-77
2021/10/29 02:55:16;;;;;;;12.32;6.85;;;;;;;23.21;41.03;99046.91;5034026;28;20083;-77
2021/10/29 02:57:42;;;;;;;10.20;7.03;;;;;;;23.30;41.18;99049.06;5034117;28;20022;-78
2021/10/29 03:00:14;;;;;;;12.07;6.88;;;;;;;23.24;41.14;99044.00;5033223;28;20026;-77
2021/10/29 03:02:41;;;;;;;9.27;6.38;;;;;;;23.14;41.34;99044.31;5033579;28;20065;-77
2021/10/29 03:05:07;;;;;;;11.52;6.13;;;;;;;23.19;41.30;99032.59;5033933;28;20026;-78
2021/10/29 03:07:33;;;;;;;8.73;6.13;;;;;;;23.20;41.41;99031.38;5033943;28;20075;-77
2021/10/29 03:09:59;;;;;;;12.50;6.40;;;;;;;23.12;41.46;99024.44;5016150;28;20029;-78
2021/10/29 03:12:25;;;;;;;11.60;7.15;;;;;;;23.18;41.02;99025.47;5033704;28;20388;-78
2021/10/29 03:14:51;;;;;;;11.10;6.30;;;;;;;23.12;41.52;99022.44;5033633;28;20056;-78
2021/10/29 03:17:17;;;;;;;9.60;5.65;;;;;;;23.09;41.60;99020.53;5033688;28;20083;-77
2021/10/29 03:19:42;;;;;;;11.25;5.63;;;;;;;23.03;41.50;99013.94;5033596;28;20026;-77
2021/10/29 03:22:08;;;;;;;8.15;5.45;;;;;;;23.05;41.45;99008.72;5033548;28;20079;-77
2021/10/29 03:24:34;;;;;;;8.85;5.47;;;;;;;23.06;41.33;99003.94;5033539;28;20479;-77
2021/10/29 03:27:00;;;;;;;10.85;5.70;;;;;;;23.03;41.52;99000.00;5033464;28;20026;-77
2021/10/29 03:29:26;;;;;;;8.75;5.60;;;;;;;23.01;41.33;98994.09;5033470;28;20032;-77
2021/10/29 03:31:52;;;;;;;10.93;5.03;;;;;;;23.02;41.62;98990.09;5033416;28;20048;-78
2021/10/29 03:34:17;;;;;;;9.65;5.15;;;;;;;22.98;41.46;98986.63;5033403;28;20061;-78
2021/10/29 03:36:44;;;;;;;9.30;5.25;;;;;;;23.03;41.43;98986.06;5033244;28;20033;-77
2021/10/29 03:39:13;;;;;;;9.60;6.05;;;;;;;23.01;41.35;98982.97;5015361;28;20523;-77
2021/10/29 03:41:55;;;;;;;10.73;5.87;;;;;;;23.05;41.30;98975.31;5031841;28;20026;-78
2021/10/29 03:45:05;;;;;;;12.15;5.43;;;;;;;22.98;41.28;98967.13;5033124;28;20036;-78
2021/10/29 03:47:10;;;;;;;11.80;4.72;;;;;;;22.92;41.38;98952.97;5027353;28;20038;-77
2021/10/29 03:49:46;;;;;;;9.70;4.97;;;;;;;22.97;41.24;98946.06;5033091;28;20021;-78
2021/10/29 03:52:21;;;;;;;7.18;4.10;;;;;;;22.96;40.89;98938.94;5015374;28;20060;-77
2021/10/29 03:54:52;;;;;;;10.75;4.53;;;;;;;22.91;41.14;98940.25;5032879;28;20034;-77
2021/10/29 03:57:27;;;;;;;10.70;4.72;;;;;;;22.81;41.32;98937.72;5033014;28;20388;-77
2021/10/29 03:59:55;;;;;;;10.77;4.40;;;;;;;22.74;41.38;98940.69;5032953;28;20021;-77
2021/10/29 04:02:22;;;;;;;7.90;4.45;;;;;;;22.72;41.12;98927.22;5032689;28;20041;-77
2021/10/29 04:04:48;;;;;;;6.88;4.32;;;;;;;22.78;41.05;98928.25;5015091;28;20029;-77
2021/10/29 04:07:14;;;;;;;12.35;4.20;;;;;;;22.76;41.22;98922.34;5032891;28;20029;-78
2021/10/29 04:09:40;;;;;;;11.38;4.20;;;;;;;22.75;41.27;98917.19;5032738;28;20029;-78
2021/10/29 04:12:06;;;;;;;11.50;4.35;;;;;;;22.71;40.97;98922.88;5032372;28;20049;-77
2021/10/29 04:14:32;;;;;;;10.77;5.07;;;;;;;22.65;41.27;98919.06;5032770;28;20021;-77
2021/10/29 04:16:57;;;;;;;11.55;4.75;;;;;;;22.71;40.93;98912.53;5032672;28;20098;-77
2021/10/29 04:19:23;;;;;;;11.15;4.90;;;;;;;22.69;40.94;98908.63;5032616;28;20033;-77
2021/10/29 04:21:50;;;;;;;11.10;4.93;;;;;;;22.66;40.98;98913.06;5032687;28;20017;-78
2021/10/29 04:24:15;;;;;;;7.38;4.65;;;;;;;22.65;41.08;98911.50;5032540;28;20036;-77
2021/10/29 04:26:41;;;;;;;13.60;5.55;;;;;;;22.61;41.11;98916.38;5032606;28;20029;-77
2021/10/29 04:29:15;;;;;;;9.20;4.95;;;;;;;22.72;41.05;98902.16;5032579;28;20036;-78
2021/10/29 04:31:49;;;;;;;10.27;4.88;;;;;;;22.68;40.84;98898.72;5032536;28;20028;-77
2021/10/29 04:34:23;;;;;;;12.82;5.70;;;;;;;22.66;41.38;98901.13;5014771;28;20428;-77
2021/10/29 04:36:50;;;;;;;8.82;5.15;;;;;;;22.58;41.22;98900.53;5032461;28;20033;-77
2021/10/29 04:39:16;;;;;;;11.20;5.60;;;;;;;22.67;41.26;98902.69;5032474;28;20407;-77
2021/10/29 04:41:44;;;;;;;7.90;4.63;;;;;;;22.74;40.82;98898.94;5032392;28;20025;-77
2021/10/29 04:44:11;;;;;;;11.77;5.32;;;;;;;22.76;40.83;98896.53;5032352;28;20361;-77
2021/10/29 04:46:37;;;;;;;7.75;5.32;;;;;;;22.70;40.88;98899.84;5032388;28;20013;-77
2021/10/29 04:49:04;;;;;;;8.35;4.88;;;;;;;22.77;41.07;98896.06;5014636;28;20032;-77
2021/10/29 04:51:30;;;;;;;9.27;5.63;;;;;;;22.71;41.02;98904.19;5014650;28;20472;-78
2021/10/29 04:53:56;;;;;;;8.73;5.15;;;;;;;22.70;41.04;98899.84;5032288;28;20032;-77
2021/10/29 04:56:22;;;;;;;16.05;6.25;;;;;;;22.71;41.02;98895.03;5032210;28;20037;-77
2021/10/29 04:58:48;;;;;;;11.30;6.40;;;;;;;22.72;41.09;98899.38;5032168;28;20033;-77
2021/10/29 05:01:14;;;;;;;12.43;7.20;;;;;;;22.74;41.03;98898.94;5032025;28;20122;-77
2021/10/29 05:03:40;;;;;;;7.90;5.82;;;;;;;22.66;41.15;98903.91;5032247;28;20025;-77
2021/10/29 05:06:05;;;;;;;10.68;6.20;;;;;;;22.70;40.91;98910.19;5032235;28;20060;-77
2021/10/29 05:08:31;;;;;;;10.65;6.80;;;;;;;22.65;41.00;98907.94;5032183;28;20018;-77
2021/10/29 05:10:57;;;;;;;14.43;7.30;;;;;;;22.67;41.14;98903.50;5032144;28;20026;-77
2021/10/29 05:13:23;;;;;;;11.90;6.47;;;;;;;22.63;40.92;98896.47;5032128;28;20479;-77
2021/10/29 05:15:48;;;;;;;14.85;7.07;;;;;;;22.68;40.81;98895.94;5031967;28;20384;-78
2021/10/29 05:18:16;;;;;;;16.95;8.07;;;;;;;22.60;41.29;98897.34;5032040;28;20026;-77
2021/10/29 05:20:45;;;;;;;13.00;8.02;;;;;;;22.55;41.26;98895.88;5014415;28;20099;-77
2021/10/29 05:23:12;;;;;;;12.18;8.02;;;;;;;22.61;41.11;98891.34;5031653;28;20029;-78
2021/10/29 05:25:37;;;;;;;11.70;7.60;;;;;;;22.53;41.17;98889.97;5017661;28;20024;-77
2021/10/29 05:28:05;;;;;;;12.65;7.05;;;;;;;22.61;41.27;98896.13;5035785;28;20029;-78
2021/10/29 05:30:31;;;;;;;13.40;7.53;;;;;;;22.61;40.87;98891.34;5035752;28;20382;-77
2021/10/29 05:32:57;;;;;;;13.80;9.60;;;;;;;22.55;41.00;98889.53;5035666;28;20027;-77
2021/10/29 05:35:22;;;;;;;12.93;8.45;;;;;;;22.56;41.41;98885.50;5035552;28;20029;-77
2021/10/29 05:37:48;;;;;;;14.68;10.20;;;;;;;22.54;41.17;98885.97;5035562;28;20083;-77
2021/10/29 05:40:14;;;;;;;12.95;9.57;;;;;;;22.47;41.35;98879.81;5035437;28;20029;-77
2021/10/29 05:42:40;;;;;;;18.25;10.93;;;;;;;22.49;41.04;98880.91;5035453;28;20029;-77
2021/10/29 05:45:08;;;;;;;14.45;10.00;;;;;;;22.39;41.39;98874.44;5035425;28;20021;-77
2021/10/29 05:47:35;;;;;;;15.13;11.88;;;;;;;22.46;41.18;98873.47;5035437;28;20036;-79
2021/10/29 05:50:01;;;;;;;20.40;14.32;;;;;;;22.19;41.76;98867.41;5035330;28;20024;-76
2021/10/29 05:52:29;;;;;;;20.08;14.93;;;;;;;22.28;41.24;98868.34;5017108;28;20092;-77
2021/10/29 05:55:13;;;;;;;20.90;14.90;;;;;;;22.35;40.96;98862.59;5015674;28;20025;-76
2021/10/29 05:57:46;;;;;;;14.93;11.27;;;;;;;22.26;41.38;98867.22;5016884;28;20045;-76
2021/10/29 06:00:13;;;;;;;14.38;9.55;;;;;;;22.27;41.18;98860.44;5035254;28;20029;-76
2021/10/29 06:02:39;;;;;;;23.15;8.65;;;;;;;22.33;41.07;98867.03;5034954;28;20052;-76
2021/10/29 06:05:05;;;;;;;12.98;8.35;;;;;;;22.35;40.72;98865.38;5035065;28;20056;-76
2021/10/29 06:07:35;;;;;;;11.82;7.25;;;;;;;22.30;41.17;98873.50;5035152;28;20040;-76
2021/10/29 06:10:01;;;;;;;;;;;;;;;22.14;41.19;98869.53;5035484;28;20100;-77
2021/10/29 06:12:27;;;;;;;14.05;8.15;;;;;;;22.30;41.11;98865.94;5034942;28;19913;-76
2021/10/29 06:14:53;;;;;;;12.13;6.72;;;;;;;22.10;41.28;98868.81;5034815;28;20397;-77
2021/10/29 06:17:19;;;;;;;13.20;7.20;;;;;;;22.11;41.38;98873.16;5034924;28;20033;-77
2021/10/29 06:19:45;;;;;;;14.63;7.93;;;;;;;22.18;40.99;98872.19;5034813;28;20411;-77
2021/10/29 06:24:38;;;;;;;12.23;6.40;;;;;;;22.22;40.78;98870.13;5034396;28;20029;-76
2021/10/29 06:29:32;;;;;;;12.75;5.97;;;;;;;22.20;40.80;98878.09;5034593;28;20090;-76
2021/10/29 06:31:58;;;;;;;10.25;6.18;;;;;;;22.21;40.85;98876.88;5034594;28;20037;-76
2021/10/29 06:34:24;;;;;;;8.43;6.10;;;;;;;22.27;40.92;98877.91;5034289;28;20479;-76
2021/10/29 06:36:49;;;;;;;13.88;7.07;;;;;;;22.21;41.07;98878.88;5033973;28;20037;-76
2021/10/29 06:39:16;;;;;;;9.73;5.90;;;;;;;22.19;40.96;98882.09;5034419;28;20486;-76
2021/10/29 06:41:42;;;;;;;9.02;4.80;;;;;;;22.19;40.96;98878.53;5034447;28;20022;-76
2021/10/29 06:44:22;;;;;;;13.98;6.07;;;;;;;22.17;40.94;98878.19;5034336;28;20029;-78
2021/10/29 06:47:33;;;;;;;8.27;4.25;;;;;;;22.17;40.86;98883.75;5034352;28;20048;-77
2021/10/29 07:39:58;;;;;;;9.73;4.60;;;;;;;21.47;41.94;98899.69;5017095;28;20060;-76
2021/10/29 07:42:28;;;;;;;8.45;4.60;;;;;;;21.47;42.13;98893.34;4999841;28;20885;-76
2021/10/29 07:44:54;;;;;;;10.05;4.88;;;;;;;21.65;41.37;98892.94;5017432;28;20033;-76
2021/10/29 07:47:20;;;;;;;9.13;4.43;;;;;;;21.64;41.56;98900.50;5016400;28;20029;-76
2021/10/29 07:49:46;;;;;;;9.90;4.47;;;;;;;21.60;41.58;98903.34;5016851;28;20030;-76
2021/10/29 07:52:14;;;;;;;11.70;4.00;;;;;;;21.55;41.79;98903.09;4998608;28;20491;-76
2021/10/29 07:54:44;;;;;;;11.65;4.25;;;;;;;21.57;41.66;98897.88;5016938;28;20033;-77
2021/10/29 07:57:10;;;;;;;;;;;;;;;21.51;41.71;98903.16;5020276;28;20246;-76
2021/10/29 07:59:35;;;;;;;13.05;4.25;;;;;;;21.70;41.29;98904.31;5014210;28;19913;-77
2021/10/29 08:02:01;;;;;;;12.38;5.32;;;;;;;21.72;41.26;98903.88;5032588;28;20046;-76
2021/10/29 08:04:27;;;;;;;10.82;4.60;;;;;;;21.74;41.16;98907.00;5032676;28;20052;-76
2021/10/29 08:06:53;;;;;;;16.20;4.88;;;;;;;21.66;41.57;98906.38;5032525;28;20028;-77
2021/10/29 08:09:19;;;;;;;6.85;4.15;;;;;;;21.73;41.22;98911.78;5032722;28;20026;-77
2021/10/29 08:11:45;;;;;;;11.43;4.13;;;;;;;21.75;41.30;98916.91;5032362;28;20083;-77
2021/10/29 08:14:11;;;;;;;15.57;4.50;;;;;;;21.54;41.70;98915.41;5032697;28;20022;-77
2021/10/29 08:16:36;;;;;;;11.10;5.03;;;;;;;21.71;41.39;98919.00;5032403;28;20029;-77
2021/10/29 08:19:02;;;;;;;11.95;4.65;;;;;;;21.74;41.18;98927.25;5032641;28;20024;-77
2021/10/29 08:21:28;;;;;;;16.42;5.57;;;;;;;21.68;41.40;98930.97;5032612;28;20423;-77
2021/10/29 08:23:54;;;;;;;11.68;5.70;;;;;;;21.80;41.35;98933.88;5032502;28;20029;-77
2021/10/29 08:26:21;;;;;;;10.55;6.07;;;;;;;21.67;41.44;98932.19;5032427;28;20030;-77
2021/10/29 08:28:47;;;;;;;11.45;6.00;;;;;;;21.72;41.39;98934.47;5032441;28;20095;-78
2021/10/29 08:31:12;;;;;;;11.40;6.07;;;;;;;21.70;41.41;98934.91;5032489;28;20053;-77
2021/10/29 08:33:38;;;;;;;10.82;5.72;;;;;;;21.66;41.75;98930.63;5032477;28;20084;-77
2021/10/29 08:36:05;;;;;;;10.40;5.22;;;;;;;21.49;42.10;98936.16;5014579;28;20026;-77
2021/10/29 08:38:31;;;;;;;10.43;5.45;;;;;;;21.69;41.68;98927.78;5032291;28;20022;-77
2021/10/29 08:40:58;;;;;;;12.88;5.90;;;;;;;21.31;42.54;98930.19;5031947;28;20075;-77
2021/10/29 08:43:23;;;;;;;10.85;6.25;;;;;;;21.34;42.52;98926.56;5032329;28;20116;-77
2021/10/29 08:45:50;;;;;;;10.63;5.72;;;;;;;21.32;42.31;98927.00;5032308;28;20109;-77
2021/10/29 08:48:16;;;;;;;11.00;6.15;;;;;;;21.54;41.92;98927.31;5032197;28;20037;-77
2021/10/29 08:50:41;;;;;;;12.52;6.45;;;;;;;21.49;42.15;98930.59;5032200;28;20033;-77
2021/10/29 08:53:08;;;;;;;9.00;6.03;;;;;;;21.45;42.26;98931.88;5032211;28;20029;-77
2021/10/29 08:55:34;;;;;;;10.60;5.97;;;;;;;21.38;42.32;98941.13;5032030;28;20144;-77
2021/10/29 08:58:04;;;;;;;14.98;6.22;;;;;;;21.39;41.93;98936.38;5033119;28;20030;-77
2021/10/29 09:00:35;;;;;;;10.45;5.43;;;;;;;21.19;42.77;98933.59;5036158;28;20163;-77
2021/10/29 09:05:47;;;;;;;11.40;5.43;;;;;;;21.43;42.10;98921.19;5036178;28;20048;-77
2021/10/29 09:08:28;;;;;;;11.32;5.20;;;;;;;21.30;42.63;98925.84;5036131;28;20022;-76
2021/10/29 09:33:50;;;;;;;9.75;4.00;;;;;;;21.15;43.00;98946.75;5018278;28;20033;-79
2021/10/29 09:36:39;;;;;;;8.95;3.63;;;;;;;21.14;42.89;98951.53;5017253;28;20108;-78
2021/10/29 09:39:13;;;;;;;11.82;4.55;;;;;;;21.06;43.14;98947.31;5017064;28;20099;-79
2021/10/29 09:41:40;;;;;;;16.67;4.55;;;;;;;21.22;42.84;98950.16;4999756;28;20017;-78
2021/10/29 09:44:12;;;;;;;8.10;3.75;;;;;;;20.85;43.43;98948.53;4999771;28;20379;-78
2021/10/29 09:49:23;;;;;;;11.73;4.10;;;;;;;21.16;42.70;98945.53;5034550;28;20026;-80
2021/10/29 09:52:18;;;;;;;9.00;3.40;;;;;;;21.18;42.84;98937.59;5034139;28;20033;-77
2021/10/29 09:55:15;;;;;;;16.55;5.20;;;;;;;21.10;43.01;98945.28;5015330;28;20026;-77
2021/10/29 09:57:41;;;;;;;11.70;3.80;;;;;;;21.35;42.49;98952.34;5015611;28;20030;-77
2021/10/29 10:00:10;;;;;;;12.18;4.45;;;;;;;21.30;42.38;98948.84;5015815;28;20048;-78
2021/10/29 10:02:43;;;;;;;12.52;4.38;;;;;;;21.05;43.06;98952.09;5032376;28;20053;-77
2021/10/29 10:05:09;;;;;;;9.85;4.10;;;;;;;21.29;42.75;98961.16;5035232;28;20029;-77
2021/10/29 10:07:37;;;;;;;10.05;4.40;;;;;;;21.44;42.52;98955.31;5017313;28;20063;-78
2021/10/29 10:10:07;;;;;;;11.40;4.80;;;;;;;21.45;42.53;98956.88;5034369;28;20112;-77
2021/10/29 10:12:35;;;;;;;13.82;5.55;;;;;;;21.62;42.32;98966.84;5034947;28;20087;-78
2021/10/29 10:15:04;;;;;;;10.43;4.90;;;;;;;21.72;42.04;98965.81;5034941;28;20502;-77
2021/10/29 10:17:31;;;;;;;11.52;5.10;;;;;;;21.53;42.54;98963.84;5031450;28;20041;-77
2021/10/29 10:19:58;;;;;;;12.05;4.57;;;;;;;21.74;41.95;98957.81;5018258;28;20064;-77
2021/10/29 10:22:27;;;;;;;10.90;4.47;;;;;;;21.84;41.94;98972.72;5019088;28;20033;-76
2021/10/29 10:25:07;;;;;;;18.17;4.75;;;;;;;21.82;42.08;98969.56;5018399;28;20033;-78
2021/10/29 10:42:52;;;;;;;8.25;4.35;;;;;;;22.19;42.25;98978.69;5011457;28;20037;-84
2021/10/29 10:46:07;;;;;;;10.00;3.80;;;;;;;22.40;42.13;98976.16;5017007;28;20049;-79
2021/10/29 10:51:46;;;;;;;9.93;4.97;;;;;;;22.43;41.73;98985.63;5004520;28;20050;-79
2021/10/29 10:57:28;;;;;;;8.20;2.90;;;;;;;22.31;41.77;98989.91;5018015;28;20120;-83
2021/10/29 11:05:39;;;;;;;13.20;4.38;;;;;;;22.32;41.61;98999.03;5013738;28;20045;-79
2021/10/29 11:10:42;;;;;;;12.23;2.92;;;;;;;22.39;41.18;98999.63;5013225;28;20034;-79
2021/10/29 11:13:09;;;;;;;13.38;3.35;;;;;;;22.48;41.27;99010.16;5013378;28;20109;-79
2021/10/29 11:15:36;;;;;;;8.85;3.47;;;;;;;22.66;40.87;99004.91;4995295;28;20037;-75
2021/10/29 11:18:28;;;;;;;5.35;2.53;;;;;;;22.82;41.05;99006.91;5012941;28;20041;-78
2021/10/29 11:20:56;;;;;;;10.18;2.70;;;;;;;22.45;41.74;99010.25;5013007;28;20075;-78
2021/10/29 11:23:24;;;;;;;10.35;2.65;;;;;;;22.58;41.63;99014.66;4994675;28;20037;-79
2021/10/29 11:26:09;;;;;;;11.30;3.25;;;;;;;22.68;40.93;99013.63;5013111;28;20050;-77
2021/10/29 11:28:46;;;;;;;9.00;2.38;;;;;;;22.97;40.33;99012.91;5012981;28;20101;-78
2021/10/29 11:31:14;;;;;;;13.25;3.38;;;;;;;23.03;40.29;99016.72;5012995;28;20519;-78
2021/10/29 11:33:50;;;;;;;8.68;2.88;;;;;;;22.97;40.12;99019.28;5013011;28;20033;-80
2021/10/29 11:36:19;;;;;;;21.63;4.50;;;;;;;23.03;40.04;99025.06;5012254;28;20442;-79
2021/10/29 11:38:47;;;;;;;10.32;2.88;;;;;;;22.88;39.62;99019.09;5013268;28;20117;-79
2021/10/29 11:41:20;;;;;;;10.80;2.55;;;;;;;23.06;39.73;99027.00;5025793;28;20112;-78
2021/10/29 11:43:46;;;;;;;15.65;3.63;;;;;;;23.19;39.84;99025.03;5015308;28;20496;-77
2021/10/29 11:46:13;;;;;;;8.40;2.75;;;;;;;23.30;39.46;99019.19;5033103;28;20109;-78
2021/10/29 11:48:57;;;;;;;17.92;3.25;;;;;;;23.32;39.55;99016.72;5033085;28;20436;-77
2021/10/29 11:51:24;;;;;;;12.35;3.08;;;;;;;23.09;39.84;99017.75;5033077;28;20033;-77
2021/10/29 11:53:58;;;;;;;10.00;3.20;;;;;;;23.21;39.37;99022.59;5032947;28;20029;-77
2021/10/29 11:59:07;;;;;;;9.57;2.28;;;;;;;23.24;38.82;99021.72;5032606;28;20018;-78
2021/10/29 12:09:31;;;;;;;16.08;3.33;;;;;;;23.19;39.28;99022.25;5015486;28;20021;-76
2021/10/29 12:12:22;;;;;;;20.27;3.15;;;;;;;23.33;39.16;99026.66;5014596;28;20025;-77
2021/10/29 12:14:50;;;;;;;12.25;3.22;;;;;;;23.47;39.15;99022.69;4997617;28;20111;-77
2021/10/29 12:17:24;;;;;;;17.80;3.22;;;;;;;23.48;39.09;99018.66;4998782;28;20029;-78
2021/10/29 12:19:57;;;;;;;14.45;3.97;;;;;;;23.57;38.82;99027.16;5016535;28;20017;-78
2021/10/29 12:23:00;;;;;;;11.43;3.58;;;;;;;23.78;38.57;99015.41;5015638;28;20080;-78
2021/10/29 12:25:29;;;;;;;12.05;3.45;;;;;;;23.78;38.87;99020.22;5011303;28;20037;-85
2021/10/29 12:30:48;;;;;;;10.50;3.10;;;;;;;23.97;38.55;99005.28;5016517;28;20029;-82
2021/10/29 12:51:56;;;;;;;8.65;2.45;;;;;;;24.24;36.85;99007.63;5017206;28;20072;-78
2021/10/29 13:01:35;;;;;;;12.23;2.58;;;;;;;24.05;36.41;99011.44;5016154;28;20518;-77
2021/10/29 13:04:07;;;;;;;13.38;2.45;;;;;;;24.01;36.70;99011.53;5016905;28;20025;-79
2021/10/29 13:06:35;;;;;;;21.02;3.63;;;;;;;24.20;36.08;99012.53;4998347;28;20048;-79
2021/10/29 13:09:11;;;;;;;13.55;3.20;;;;;;;24.14;36.38;99011.53;5017563;28;20025;-79
2021/10/29 13:12:07;;;;;;;15.07;3.80;;;;;;;24.14;36.06;99002.38;5017532;28;20170;-80
2021/10/29 13:14:36;;;;;;;9.68;2.67;;;;;;;24.29;36.26;99006.28;5016619;28;20126;-79
2021/10/29 13:17:05;;;;;;;6.13;1.80;;;;;;;23.86;36.46;99004.81;5027296;28;20071;-79
2021/10/29 13:19:50;;;;;;;17.80;4.20;;;;;;;24.32;35.58;99006.19;5032224;28;20024;-79
2021/10/29 13:38:34;;;;;;;13.85;3.25;;;;;;;24.32;35.56;99000.59;5032239;28;20033;-77
2021/10/29 13:51:58;;;;;;;9.45;2.10;;;;;;;24.32;35.80;99006.19;5035418;28;20399;-76
2021/10/29 14:24:32;;;;;;;13.32;2.88;;;;;;;24.56;35.25;99005.81;5011328;28;20037;-77
2021/10/29 14:34:54;;;;;;;9.63;2.03;;;;;;;24.91;35.20;98992.66;5034095;28;20037;-81
2021/10/29 14:37:33;;;;;;;9.52;2.90;;;;;;;24.89;35.02;99001.50;5034236;28;20029;-83
2021/10/29 14:45:05;;;;;;;8.48;2.15;;;;;;;24.94;34.50;98990.97;5035736;28;20033;-83
2021/10/29 14:47:57;;;;;;;13.07;2.28;;;;;;;24.97;34.59;98999.22;5021549;28;20041;-84
2021/10/29 15:32:20;;;;;;;19.65;6.57;;;;;;;23.97;35.87;99008.06;5032255;28;20068;-81
2021/10/29 15:43:18;;;;;;;11.35;7.32;;;;;;;24.30;35.32;98997.44;5031344;28;20036;-81
2021/10/29 15:45:46;;;;;;;14.45;5.00;;;;;;;24.25;35.70;99002.81;5029662;28;20025;-80
2021/10/29 15:48:19;;;;;;;14.13;4.07;;;;;;;24.15;35.70;98998.34;5030736;28;20040;-80
2021/10/29 15:50:45;;;;;;;11.98;3.45;;;;;;;24.00;35.98;99003.59;5011894;28;20502;-83
2021/10/29 15:53:14;;;;;;;7.88;2.50;;;;;;;24.06;35.85;99002.59;5030883;28;20022;-82
2021/10/29 15:55:47;;;;;;;15.83;5.10;;;;;;;24.12;36.04;99004.84;5011025;28;20037;-81
2021/10/29 15:58:29;;;;;;;8.45;3.10;;;;;;;24.05;36.19;99017.00;5013588;28;20617;-82
2021/10/29 16:01:07;;;;;;;14.00;2.95;;;;;;;23.95;36.03;99020.88;5012827;28;20037;-82
2021/10/29 16:17:42;;;;;;;6.20;2.20;;;;;;;23.53;35.86;99010.53;4932427;29;20152;-82
2021/10/29 16:20:08;;;;;;;10.60;2.00;;;;;;;23.47;35.96;99019.88;5011209;28;20148;-81
2021/10/29 16:22:34;;;;;;;13.63;3.00;;;;;;;23.39;36.14;99010.16;5013034;28;20138;-81
2021/10/29 16:25:11;;;;;;;7.78;2.45;;;;;;;23.31;36.31;99019.97;5031148;28;20079;-82